sensor_id;sensor_type;location;lat;lon;timestamp;P1;durP1;ratioP1;P2;durP2;ratioP2
74894;SDS011;63447;49.446;8.666;2023-05-16T00:00:13;15.35;;;10.40;;
74894;SDS011;63447;49.446;8.666;2023-05-16T00:02:39;14.90;;;10.18;;
74894;SDS011;63447;49.446;8.666;2023-05-16T00:05:05;19.02;;;12.00;;
74894;SDS011;63447;49.446;8.666;2023-05-16T00:07:40;17.75;;;11.77;;
74894;SDS011;63447;49.446;8.666;2023-05-16T00:10:10;17.23;;;11.05;;
74894;SDS011;63447;49.446;8.666;2023-05-16T00:12:36;17.58;;;11.90;;
74894;SDS011;63447;49.446;8.666;2023-05-16T00:15:03;19.45;;;12.80;;
74894;SDS011;63447;49.446;8.666;2023-05-16T00:17:30;22.13;;;12.95;;
74894;SDS011;63447;49.446;8.666;2023-05-16T00:19:58;23.25;;;13.73;;
74894;SDS011;63447;49.446;8.666;2023-05-16T00:22:24;21.33;;;13.05;;
74894;SDS011;63447;49.446;8.666;2023-05-16T00:24:52;21.08;;;13.55;;
74894;SDS011;63447;49.446;8.666;2023-05-16T00:27:17;23.42;;;14.57;;
74894;SDS011;63447;49.446;8.666;2023-05-16T00:29:45;21.83;;;13.85;;
74894;SDS011;63447;49.446;8.666;2023-05-16T00:32:10;20.85;;;13.10;;
74894;SDS011;63447;49.446;8.666;2023-05-16T00:34:38;22.73;;;14.33;;
74894;SDS011;63447;49.446;8.666;2023-05-16T00:37:06;22.23;;;13.82;;
74894;SDS011;63447;49.446;8.666;2023-05-16T00:39:33;24.58;;;14.07;;
74894;SDS011;63447;49.446;8.666;2023-05-16T00:41:59;22.52;;;13.25;;
74894;SDS011;63447;49.446;8.666;2023-05-16T00:44:24;24.30;;;14.33;;
74894;SDS011;63447;49.446;8.666;2023-05-16T00:46:49;25.30;;;14.60;;
74894;SDS011;63447;49.446;8.666;2023-05-16T00:49:17;24.30;;;14.75;;
74894;SDS011;63447;49.446;8.666;2023-05-16T00:51:43;27.52;;;14.90;;
74894;SDS011;63447;49.446;8.666;2023-05-16T00:54:12;26.52;;;14.73;;
74894;SDS011;63447;49.446;8.666;2023-05-16T00:56:39;24.98;;;14.57;;
74894;SDS011;63447;49.446;8.666;2023-05-16T00:59:07;26.60;;;15.40;;
74894;SDS011;63447;49.446;8.666;2023-05-16T01:01:32;27.02;;;15.52;;
74894;SDS011;63447;49.446;8.666;2023-05-16T01:04:01;27.38;;;14.48;;
74894;SDS011;63447;49.446;8.666;2023-05-16T01:06:27;27.17;;;15.80;;
74894;SDS011;63447;49.446;8.666;2023-05-16T01:08:55;26.17;;;14.98;;
74894;SDS011;63447;49.446;8.666;2023-05-16T01:27:26;33.20;;;17.55;;
74894;SDS011;63447;49.446;8.666;2023-05-16T01:29:57;33.08;;;18.83;;
74894;SDS011;63447;49.446;8.666;2023-05-16T01:32:22;33.10;;;17.95;;
74894;SDS011;63447;49.446;8.666;2023-05-16T01:34:50;30.05;;;17.25;;
74894;SDS011;63447;49.446;8.666;2023-05-16T01:37:18;33.97;;;17.77;;
74894;SDS011;63447;49.446;8.666;2023-05-16T01:39:51;35.42;;;19.73;;
74894;SDS011;63447;49.446;8.666;2023-05-16T01:42:32;34.42;;;18.08;;
74894;SDS011;63447;49.446;8.666;2023-05-16T01:45:14;33.80;;;18.75;;
74894;SDS011;63447;49.446;8.666;2023-05-16T01:47:46;34.78;;;18.35;;
74894;SDS011;63447;49.446;8.666;2023-05-16T01:50:16;37.53;;;19.08;;
74894;SDS011;63447;49.446;8.666;2023-05-16T01:55:23;34.60;;;18.55;;
74894;SDS011;63447;49.446;8.666;2023-05-16T01:58:03;36.35;;;18.45;;
74894;SDS011;63447;49.446;8.666;2023-05-16T02:00:31;34.83;;;18.38;;
74894;SDS011;63447;49.446;8.666;2023-05-16T02:02:59;36.63;;;19.52;;
74894;SDS011;63447;49.446;8.666;2023-05-16T02:05:29;36.10;;;18.95;;
74894;SDS011;63447;49.446;8.666;2023-05-16T02:07:54;35.28;;;18.63;;
74894;SDS011;63447;49.446;8.666;2023-05-16T02:10:20;34.35;;;18.80;;
74894;SDS011;63447;49.446;8.666;2023-05-16T02:12:49;35.58;;;18.50;;
74894;SDS011;63447;49.446;8.666;2023-05-16T02:15:14;35.97;;;19.40;;
74894;SDS011;63447;49.446;8.666;2023-05-16T02:17:40;38.58;;;20.20;;
74894;SDS011;63447;49.446;8.666;2023-05-16T02:20:06;36.70;;;20.65;;
74894;SDS011;63447;49.446;8.666;2023-05-16T02:22:34;36.38;;;20.15;;
74894;SDS011;63447;49.446;8.666;2023-05-16T02:25:03;39.17;;;19.85;;
74894;SDS011;63447;49.446;8.666;2023-05-16T02:27:31;38.38;;;20.15;;
74894;SDS011;63447;49.446;8.666;2023-05-16T02:29:59;38.45;;;19.95;;
74894;SDS011;63447;49.446;8.666;2023-05-16T02:32:24;42.63;;;21.05;;
74894;SDS011;63447;49.446;8.666;2023-05-16T02:34:54;40.53;;;21.20;;
74894;SDS011;63447;49.446;8.666;2023-05-16T02:37:22;41.92;;;21.27;;
74894;SDS011;63447;49.446;8.666;2023-05-16T02:39:47;41.30;;;21.73;;
74894;SDS011;63447;49.446;8.666;2023-05-16T02:42:17;41.88;;;22.02;;
74894;SDS011;63447;49.446;8.666;2023-05-16T02:44:42;41.90;;;22.15;;
74894;SDS011;63447;49.446;8.666;2023-05-16T02:47:08;42.22;;;21.80;;
74894;SDS011;63447;49.446;8.666;2023-05-16T02:49:33;43.47;;;22.53;;
74894;SDS011;63447;49.446;8.666;2023-05-16T02:51:58;42.60;;;23.17;;
74894;SDS011;63447;49.446;8.666;2023-05-16T02:54:26;42.53;;;21.65;;
74894;SDS011;63447;49.446;8.666;2023-05-16T02:56:52;40.85;;;22.23;;
74894;SDS011;63447;49.446;8.666;2023-05-16T02:59:17;45.60;;;23.80;;
74894;SDS011;63447;49.446;8.666;2023-05-16T03:01:45;41.33;;;21.90;;
74894;SDS011;63447;49.446;8.666;2023-05-16T03:04:12;42.10;;;23.13;;
74894;SDS011;63447;49.446;8.666;2023-05-16T03:06:38;40.27;;;21.40;;
74894;SDS011;63447;49.446;8.666;2023-05-16T03:09:03;46.10;;;22.73;;
74894;SDS011;63447;49.446;8.666;2023-05-16T03:11:33;41.83;;;22.88;;
74894;SDS011;63447;49.446;8.666;2023-05-16T03:13:58;40.83;;;21.70;;
74894;SDS011;63447;49.446;8.666;2023-05-16T03:16:26;42.20;;;22.38;;
74894;SDS011;63447;49.446;8.666;2023-05-16T03:18:52;40.92;;;21.63;;
74894;SDS011;63447;49.446;8.666;2023-05-16T03:21:17;43.17;;;21.15;;
74894;SDS011;63447;49.446;8.666;2023-05-16T03:23:43;40.83;;;21.43;;
74894;SDS011;63447;49.446;8.666;2023-05-16T03:26:08;43.47;;;21.80;;
74894;SDS011;63447;49.446;8.666;2023-05-16T03:28:36;39.35;;;20.83;;
74894;SDS011;63447;49.446;8.666;2023-05-16T03:31:04;38.70;;;20.95;;
74894;SDS011;63447;49.446;8.666;2023-05-16T03:33:30;40.83;;;21.75;;
74894;SDS011;63447;49.446;8.666;2023-05-16T03:35:55;38.75;;;20.90;;
74894;SDS011;63447;49.446;8.666;2023-05-16T03:38:23;38.80;;;19.85;;
74894;SDS011;63447;49.446;8.666;2023-05-16T03:40:53;36.65;;;18.95;;
74894;SDS011;63447;49.446;8.666;2023-05-16T03:43:19;36.67;;;19.38;;
74894;SDS011;63447;49.446;8.666;2023-05-16T03:45:46;37.42;;;20.30;;
74894;SDS011;63447;49.446;8.666;2023-05-16T03:48:14;35.93;;;19.73;;
74894;SDS011;63447;49.446;8.666;2023-05-16T03:50:40;35.08;;;19.67;;
74894;SDS011;63447;49.446;8.666;2023-05-16T03:53:08;37.80;;;19.15;;
74894;SDS011;63447;49.446;8.666;2023-05-16T03:55:33;36.38;;;19.35;;
74894;SDS011;63447;49.446;8.666;2023-05-16T03:57:59;32.08;;;17.98;;
74894;SDS011;63447;49.446;8.666;2023-05-16T04:00:27;31.77;;;18.00;;
74894;SDS011;63447;49.446;8.666;2023-05-16T04:02:53;32.53;;;17.75;;
74894;SDS011;63447;49.446;8.666;2023-05-16T04:05:18;34.30;;;17.40;;
74894;SDS011;63447;49.446;8.666;2023-05-16T04:07:46;31.92;;;16.95;;
74894;SDS011;63447;49.446;8.666;2023-05-16T04:10:11;31.83;;;17.35;;
74894;SDS011;63447;49.446;8.666;2023-05-16T04:12:38;31.02;;;16.70;;
74894;SDS011;63447;49.446;8.666;2023-05-16T04:15:04;32.53;;;16.95;;
74894;SDS011;63447;49.446;8.666;2023-05-16T04:17:30;28.95;;;14.98;;
74894;SDS011;63447;49.446;8.666;2023-05-16T04:19:58;27.33;;;15.40;;
74894;SDS011;63447;49.446;8.666;2023-05-16T04:22:24;29.35;;;14.88;;
74894;SDS011;63447;49.446;8.666;2023-05-16T04:24:55;27.40;;;14.38;;
74894;SDS011;63447;49.446;8.666;2023-05-16T04:27:22;26.88;;;14.63;;
74894;SDS011;63447;49.446;8.666;2023-05-16T04:29:51;28.00;;;14.85;;
74894;SDS011;63447;49.446;8.666;2023-05-16T04:32:18;27.02;;;15.25;;
74894;SDS011;63447;49.446;8.666;2023-05-16T04:34:48;28.45;;;14.20;;
74894;SDS011;63447;49.446;8.666;2023-05-16T04:37:18;26.98;;;14.38;;
74894;SDS011;63447;49.446;8.666;2023-05-16T04:39:43;27.05;;;14.07;;
74894;SDS011;63447;49.446;8.666;2023-05-16T04:42:09;31.20;;;14.20;;
74894;SDS011;63447;49.446;8.666;2023-05-16T04:44:39;25.05;;;13.07;;
74894;SDS011;63447;49.446;8.666;2023-05-16T04:47:04;28.83;;;13.45;;
74894;SDS011;63447;49.446;8.666;2023-05-16T04:49:30;27.55;;;13.80;;
74894;SDS011;63447;49.446;8.666;2023-05-16T04:51:58;27.35;;;14.07;;
74894;SDS011;63447;49.446;8.666;2023-05-16T04:54:26;27.27;;;12.80;;
74894;SDS011;63447;49.446;8.666;2023-05-16T04:56:53;24.45;;;13.05;;
74894;SDS011;63447;49.446;8.666;2023-05-16T04:59:19;28.33;;;13.05;;
74894;SDS011;63447;49.446;8.666;2023-05-16T05:01:45;25.05;;;12.65;;
74894;SDS011;63447;49.446;8.666;2023-05-16T05:04:13;25.98;;;13.52;;
74894;SDS011;63447;49.446;8.666;2023-05-16T05:06:46;26.17;;;13.05;;
74894;SDS011;63447;49.446;8.666;2023-05-16T05:09:11;25.20;;;12.93;;
74894;SDS011;63447;49.446;8.666;2023-05-16T05:11:37;26.95;;;12.65;;
74894;SDS011;63447;49.446;8.666;2023-05-16T05:14:02;25.80;;;13.60;;
74894;SDS011;63447;49.446;8.666;2023-05-16T05:16:30;26.70;;;12.43;;
74894;SDS011;63447;49.446;8.666;2023-05-16T05:18:55;25.45;;;13.10;;
74894;SDS011;63447;49.446;8.666;2023-05-16T05:21:21;27.80;;;13.23;;
74894;SDS011;63447;49.446;8.666;2023-05-16T05:23:49;25.77;;;13.63;;
74894;SDS011;63447;49.446;8.666;2023-05-16T05:26:19;25.00;;;12.90;;
74894;SDS011;63447;49.446;8.666;2023-05-16T05:28:49;25.77;;;12.77;;
74894;SDS011;63447;49.446;8.666;2023-05-16T05:31:15;26.45;;;12.68;;
74894;SDS011;63447;49.446;8.666;2023-05-16T05:33:40;26.23;;;12.52;;
74894;SDS011;63447;49.446;8.666;2023-05-16T05:36:06;22.40;;;11.85;;
74894;SDS011;63447;49.446;8.666;2023-05-16T05:38:34;25.10;;;12.60;;
74894;SDS011;63447;49.446;8.666;2023-05-16T05:40:59;22.75;;;12.13;;
74894;SDS011;63447;49.446;8.666;2023-05-16T05:43:25;24.20;;;13.20;;
74894;SDS011;63447;49.446;8.666;2023-05-16T05:45:50;24.53;;;12.33;;
74894;SDS011;63447;49.446;8.666;2023-05-16T05:48:16;26.75;;;12.30;;
74894;SDS011;63447;49.446;8.666;2023-05-16T05:50:43;23.02;;;11.55;;
74894;SDS011;63447;49.446;8.666;2023-05-16T05:53:11;25.75;;;12.23;;
74894;SDS011;63447;49.446;8.666;2023-05-16T05:55:36;23.17;;;11.67;;
74894;SDS011;63447;49.446;8.666;2023-05-16T05:58:02;27.17;;;13.50;;
74894;SDS011;63447;49.446;8.666;2023-05-16T06:00:27;24.20;;;11.83;;
74894;SDS011;63447;49.446;8.666;2023-05-16T06:02:53;21.92;;;11.40;;
74894;SDS011;63447;49.446;8.666;2023-05-16T06:05:21;24.55;;;12.60;;
74894;SDS011;63447;49.446;8.666;2023-05-16T06:07:49;28.08;;;12.48;;
74894;SDS011;63447;49.446;8.666;2023-05-16T06:10:14;20.83;;;10.80;;
74894;SDS011;63447;49.446;8.666;2023-05-16T06:12:40;23.97;;;11.50;;
74894;SDS011;63447;49.446;8.666;2023-05-16T06:15:05;24.53;;;11.33;;
74894;SDS011;63447;49.446;8.666;2023-05-16T06:17:31;24.17;;;11.88;;
74894;SDS011;63447;49.446;8.666;2023-05-16T06:19:56;26.97;;;11.00;;
74894;SDS011;63447;49.446;8.666;2023-05-16T06:22:24;22.40;;;10.15;;
74894;SDS011;63447;49.446;8.666;2023-05-16T06:24:52;23.08;;;11.60;;
74894;SDS011;63447;49.446;8.666;2023-05-16T06:27:24;22.90;;;10.23;;
74894;SDS011;63447;49.446;8.666;2023-05-16T06:29:50;20.17;;;10.38;;
74894;SDS011;63447;49.446;8.666;2023-05-16T06:32:15;21.40;;;9.93;;
74894;SDS011;63447;49.446;8.666;2023-05-16T06:34:42;21.88;;;10.80;;
74894;SDS011;63447;49.446;8.666;2023-05-16T06:37:10;18.20;;;9.45;;
74894;SDS011;63447;49.446;8.666;2023-05-16T06:39:37;20.08;;;9.02;;
74894;SDS011;63447;49.446;8.666;2023-05-16T06:42:03;17.77;;;8.47;;
74894;SDS011;63447;49.446;8.666;2023-05-16T06:44:30;19.88;;;9.55;;
74894;SDS011;63447;49.446;8.666;2023-05-16T06:46:58;19.15;;;8.60;;
74894;SDS011;63447;49.446;8.666;2023-05-16T06:49:23;18.40;;;8.90;;
74894;SDS011;63447;49.446;8.666;2023-05-16T06:51:49;19.10;;;9.67;;
74894;SDS011;63447;49.446;8.666;2023-05-16T06:54:17;15.43;;;8.10;;
74894;SDS011;63447;49.446;8.666;2023-05-16T06:56:42;15.50;;;7.45;;
74894;SDS011;63447;49.446;8.666;2023-05-16T06:59:09;14.02;;;7.25;;
74894;SDS011;63447;49.446;8.666;2023-05-16T07:01:34;15.48;;;7.97;;
74894;SDS011;63447;49.446;8.666;2023-05-16T07:04:02;14.73;;;7.35;;
74894;SDS011;63447;49.446;8.666;2023-05-16T07:06:27;16.40;;;7.27;;
74894;SDS011;63447;49.446;8.666;2023-05-16T07:08:52;13.68;;;6.57;;
74894;SDS011;63447;49.446;8.666;2023-05-16T07:11:18;15.20;;;6.80;;
74894;SDS011;63447;49.446;8.666;2023-05-16T07:13:45;13.82;;;6.45;;
74894;SDS011;63447;49.446;8.666;2023-05-16T07:16:11;13.13;;;6.77;;
74894;SDS011;63447;49.446;8.666;2023-05-16T07:18:36;14.45;;;7.10;;
74894;SDS011;63447;49.446;8.666;2023-05-16T07:21:02;13.57;;;6.50;;
74894;SDS011;63447;49.446;8.666;2023-05-16T07:23:29;13.20;;;6.90;;
74894;SDS011;63447;49.446;8.666;2023-05-16T07:25:57;14.18;;;6.75;;
74894;SDS011;63447;49.446;8.666;2023-05-16T07:28:24;12.65;;;6.35;;
74894;SDS011;63447;49.446;8.666;2023-05-16T07:30:52;14.52;;;6.20;;
74894;SDS011;63447;49.446;8.666;2023-05-16T07:33:18;11.90;;;5.80;;
74894;SDS011;63447;49.446;8.666;2023-05-16T07:35:43;11.27;;;5.83;;
74894;SDS011;63447;49.446;8.666;2023-05-16T07:38:09;9.40;;;4.60;;
74894;SDS011;63447;49.446;8.666;2023-05-16T07:40:36;9.23;;;4.78;;
74894;SDS011;63447;49.446;8.666;2023-05-16T07:43:02;9.07;;;3.77;;
74894;SDS011;63447;49.446;8.666;2023-05-16T07:45:27;7.73;;;3.40;;
74894;SDS011;63447;49.446;8.666;2023-05-16T07:47:53;6.00;;;2.70;;
74894;SDS011;63447;49.446;8.666;2023-05-16T07:50:18;6.55;;;2.67;;
74894;SDS011;63447;49.446;8.666;2023-05-16T07:52:43;5.27;;;2.53;;
74894;SDS011;63447;49.446;8.666;2023-05-16T07:55:09;4.90;;;2.03;;
74894;SDS011;63447;49.446;8.666;2023-05-16T07:57:34;5.93;;;2.20;;
74894;SDS011;63447;49.446;8.666;2023-05-16T08:00:02;5.35;;;2.08;;
74894;SDS011;63447;49.446;8.666;2023-05-16T08:02:30;4.57;;;1.95;;
74894;SDS011;63447;49.446;8.666;2023-05-16T08:04:56;4.85;;;1.70;;
74894;SDS011;63447;49.446;8.666;2023-05-16T08:07:24;18.02;;;10.98;;
74894;SDS011;63447;49.446;8.666;2023-05-16T08:09:49;11.40;;;5.68;;
74894;SDS011;63447;49.446;8.666;2023-05-16T08:12:17;5.13;;;2.10;;
74894;SDS011;63447;49.446;8.666;2023-05-16T08:14:42;5.13;;;2.10;;
74894;SDS011;63447;49.446;8.666;2023-05-16T08:17:12;5.05;;;1.95;;
74894;SDS011;63447;49.446;8.666;2023-05-16T08:19:40;5.50;;;2.05;;
74894;SDS011;63447;49.446;8.666;2023-05-16T08:22:06;4.50;;;1.70;;
74894;SDS011;63447;49.446;8.666;2023-05-16T08:24:32;5.75;;;1.42;;
74894;SDS011;63447;49.446;8.666;2023-05-16T08:27:03;5.75;;;1.60;;
74894;SDS011;63447;49.446;8.666;2023-05-16T08:29:31;9.45;;;4.25;;
74894;SDS011;63447;49.446;8.666;2023-05-16T08:31:56;4.80;;;1.40;;
74894;SDS011;63447;49.446;8.666;2023-05-16T08:34:21;3.57;;;1.00;;
74894;SDS011;63447;49.446;8.666;2023-05-16T08:36:49;3.22;;;1.00;;
74894;SDS011;63447;49.446;8.666;2023-05-16T08:39:17;2.63;;;0.80;;
74894;SDS011;63447;49.446;8.666;2023-05-16T08:41:42;3.63;;;1.00;;
74894;SDS011;63447;49.446;8.666;2023-05-16T08:44:08;3.37;;;0.93;;
74894;SDS011;63447;49.446;8.666;2023-05-16T08:46:36;4.32;;;0.95;;
74894;SDS011;63447;49.446;8.666;2023-05-16T08:49:05;2.95;;;1.00;;
74894;SDS011;63447;49.446;8.666;2023-05-16T08:51:34;3.97;;;0.90;;
74894;SDS011;63447;49.446;8.666;2023-05-16T08:54:13;2.28;;;0.70;;
74894;SDS011;63447;49.446;8.666;2023-05-16T08:56:40;3.25;;;1.00;;
74894;SDS011;63447;49.446;8.666;2023-05-16T08:59:07;3.30;;;1.00;;
74894;SDS011;63447;49.446;8.666;2023-05-16T09:01:33;2.58;;;0.90;;
74894;SDS011;63447;49.446;8.666;2023-05-16T09:03:59;3.10;;;0.90;;
74894;SDS011;63447;49.446;8.666;2023-05-16T09:06:25;2.80;;;0.80;;
74894;SDS011;63447;49.446;8.666;2023-05-16T09:08:53;3.25;;;0.98;;
74894;SDS011;63447;49.446;8.666;2023-05-16T09:11:19;3.22;;;1.00;;
74894;SDS011;63447;49.446;8.666;2023-05-16T09:13:48;2.65;;;0.88;;
74894;SDS011;63447;49.446;8.666;2023-05-16T09:16:19;3.22;;;1.05;;
74894;SDS011;63447;49.446;8.666;2023-05-16T09:18:46;3.47;;;0.95;;
74894;SDS011;63447;49.446;8.666;2023-05-16T09:21:19;2.92;;;0.95;;
74894;SDS011;63447;49.446;8.666;2023-05-16T09:23:47;3.15;;;1.17;;
74894;SDS011;63447;49.446;8.666;2023-05-16T09:26:13;3.97;;;1.00;;
74894;SDS011;63447;49.446;8.666;2023-05-16T09:28:46;3.70;;;1.20;;
74894;SDS011;63447;49.446;8.666;2023-05-16T09:31:21;3.10;;;1.13;;
74894;SDS011;63447;49.446;8.666;2023-05-16T09:33:50;3.55;;;1.10;;
74894;SDS011;63447;49.446;8.666;2023-05-16T09:36:16;2.72;;;1.13;;
74894;SDS011;63447;49.446;8.666;2023-05-16T09:38:43;2.83;;;0.90;;
74894;SDS011;63447;49.446;8.666;2023-05-16T09:41:09;2.80;;;0.60;;
74894;SDS011;63447;49.446;8.666;2023-05-16T09:43:37;4.00;;;0.80;;
74894;SDS011;63447;49.446;8.666;2023-05-16T09:46:03;2.55;;;0.70;;
74894;SDS011;63447;49.446;8.666;2023-05-16T09:48:29;2.78;;;0.60;;
74894;SDS011;63447;49.446;8.666;2023-05-16T09:50:56;3.30;;;0.70;;
74894;SDS011;63447;49.446;8.666;2023-05-16T09:53:27;2.90;;;0.73;;
74894;SDS011;63447;49.446;8.666;2023-05-16T09:56:27;4.15;;;0.70;;
74894;SDS011;63447;49.446;8.666;2023-05-16T09:58:50;2.53;;;0.80;;
74894;SDS011;63447;49.446;8.666;2023-05-16T10:01:16;3.00;;;0.80;;
74894;SDS011;63447;49.446;8.666;2023-05-16T10:03:44;2.47;;;0.90;;
74894;SDS011;63447;49.446;8.666;2023-05-16T10:06:09;2.83;;;0.70;;
74894;SDS011;63447;49.446;8.666;2023-05-16T10:08:36;2.85;;;0.80;;
74894;SDS011;63447;49.446;8.666;2023-05-16T10:11:05;2.38;;;0.60;;
74894;SDS011;63447;49.446;8.666;2023-05-16T10:13:34;2.13;;;0.70;;
74894;SDS011;63447;49.446;8.666;2023-05-16T10:16:01;2.65;;;0.70;;
74894;SDS011;63447;49.446;8.666;2023-05-16T10:18:35;2.60;;;0.80;;
74894;SDS011;63447;49.446;8.666;2023-05-16T10:21:07;2.33;;;0.70;;
74894;SDS011;63447;49.446;8.666;2023-05-16T10:23:42;2.70;;;0.70;;
74894;SDS011;63447;49.446;8.666;2023-05-16T10:26:12;4.05;;;0.82;;
74894;SDS011;63447;49.446;8.666;2023-05-16T10:28:40;3.92;;;0.98;;
74894;SDS011;63447;49.446;8.666;2023-05-16T10:31:06;3.75;;;0.98;;
74894;SDS011;63447;49.446;8.666;2023-05-16T10:33:32;2.92;;;0.90;;
74894;SDS011;63447;49.446;8.666;2023-05-16T10:35:59;2.65;;;0.93;;
74894;SDS011;63447;49.446;8.666;2023-05-16T10:38:26;3.20;;;0.90;;
74894;SDS011;63447;49.446;8.666;2023-05-16T10:40:53;2.95;;;0.63;;
74894;SDS011;63447;49.446;8.666;2023-05-16T10:43:22;4.25;;;1.00;;
74894;SDS011;63447;49.446;8.666;2023-05-16T10:45:58;2.97;;;0.80;;
74894;SDS011;63447;49.446;8.666;2023-05-16T10:48:30;2.90;;;0.70;;
74894;SDS011;63447;49.446;8.666;2023-05-16T10:50:59;3.75;;;0.85;;
74894;SDS011;63447;49.446;8.666;2023-05-16T11:06:32;3.92;;;0.82;;
74894;SDS011;63447;49.446;8.666;2023-05-16T11:11:39;3.25;;;0.80;;
74894;SDS011;63447;49.446;8.666;2023-05-16T11:14:24;5.03;;;1.10;;
74894;SDS011;63447;49.446;8.666;2023-05-16T11:32:33;4.20;;;1.27;;
74894;SDS011;63447;49.446;8.666;2023-05-16T11:34:59;2.88;;;0.93;;
74894;SDS011;63447;49.446;8.666;2023-05-16T11:37:26;3.22;;;1.13;;
74894;SDS011;63447;49.446;8.666;2023-05-16T11:39:51;3.88;;;1.10;;
74894;SDS011;63447;49.446;8.666;2023-05-16T11:42:22;4.05;;;1.10;;
74894;SDS011;63447;49.446;8.666;2023-05-16T11:44:47;3.40;;;1.03;;
74894;SDS011;63447;49.446;8.666;2023-05-16T11:47:27;4.10;;;1.05;;
74894;SDS011;63447;49.446;8.666;2023-05-16T11:49:56;3.35;;;1.02;;
74894;SDS011;63447;49.446;8.666;2023-05-16T11:52:22;4.03;;;1.13;;
74894;SDS011;63447;49.446;8.666;2023-05-16T11:54:47;4.15;;;1.38;;
74894;SDS011;63447;49.446;8.666;2023-05-16T11:57:14;4.78;;;1.20;;
74894;SDS011;63447;49.446;8.666;2023-05-16T11:59:40;5.05;;;1.45;;
74894;SDS011;63447;49.446;8.666;2023-05-16T12:02:06;5.05;;;1.40;;
74894;SDS011;63447;49.446;8.666;2023-05-16T12:04:33;3.65;;;1.20;;
74894;SDS011;63447;49.446;8.666;2023-05-16T12:07:02;3.83;;;1.30;;
74894;SDS011;63447;49.446;8.666;2023-05-16T12:09:30;4.30;;;1.15;;
74894;SDS011;63447;49.446;8.666;2023-05-16T12:11:56;4.03;;;1.40;;
74894;SDS011;63447;49.446;8.666;2023-05-16T12:14:23;6.00;;;1.30;;
74894;SDS011;63447;49.446;8.666;2023-05-16T12:16:52;5.55;;;1.48;;
74894;SDS011;63447;49.446;8.666;2023-05-16T12:19:20;4.10;;;1.40;;
74894;SDS011;63447;49.446;8.666;2023-05-16T12:21:46;5.38;;;1.73;;
74894;SDS011;63447;49.446;8.666;2023-05-16T12:24:11;4.68;;;1.20;;
74894;SDS011;63447;49.446;8.666;2023-05-16T12:26:38;3.10;;;1.10;;
74894;SDS011;63447;49.446;8.666;2023-05-16T12:29:07;4.32;;;1.50;;
74894;SDS011;63447;49.446;8.666;2023-05-16T12:31:42;4.15;;;1.33;;
74894;SDS011;63447;49.446;8.666;2023-05-16T12:34:16;6.63;;;1.30;;
74894;SDS011;63447;49.446;8.666;2023-05-16T12:36:49;4.32;;;1.50;;
74894;SDS011;63447;49.446;8.666;2023-05-16T12:39:17;4.15;;;1.55;;
74894;SDS011;63447;49.446;8.666;2023-05-16T12:41:43;4.15;;;1.30;;
74894;SDS011;63447;49.446;8.666;2023-05-16T12:46:45;5.82;;;1.42;;
74894;SDS011;63447;49.446;8.666;2023-05-16T12:49:12;7.15;;;1.90;;
74894;SDS011;63447;49.446;8.666;2023-05-16T12:51:38;5.40;;;1.52;;
74894;SDS011;63447;49.446;8.666;2023-05-16T12:54:10;6.05;;;1.40;;
74894;SDS011;63447;49.446;8.666;2023-05-16T12:56:39;5.75;;;1.60;;
74894;SDS011;63447;49.446;8.666;2023-05-16T12:59:08;4.40;;;1.40;;
74894;SDS011;63447;49.446;8.666;2023-05-16T13:01:33;4.18;;;1.52;;
74894;SDS011;63447;49.446;8.666;2023-05-16T13:04:00;7.00;;;1.90;;
74894;SDS011;63447;49.446;8.666;2023-05-16T13:06:28;8.60;;;1.65;;
74894;SDS011;63447;49.446;8.666;2023-05-16T13:08:58;5.50;;;2.30;;
74894;SDS011;63447;49.446;8.666;2023-05-16T13:11:31;6.13;;;1.50;;
74894;SDS011;63447;49.446;8.666;2023-05-16T13:13:59;6.32;;;1.80;;
74894;SDS011;63447;49.446;8.666;2023-05-16T13:16:27;6.60;;;1.80;;
74894;SDS011;63447;49.446;8.666;2023-05-16T13:18:53;5.27;;;1.40;;
74894;SDS011;63447;49.446;8.666;2023-05-16T13:21:22;5.60;;;1.70;;
74894;SDS011;63447;49.446;8.666;2023-05-16T13:23:48;4.35;;;1.45;;
74894;SDS011;63447;49.446;8.666;2023-05-16T13:26:13;5.07;;;1.50;;
74894;SDS011;63447;49.446;8.666;2023-05-16T13:28:38;7.67;;;1.50;;
74894;SDS011;63447;49.446;8.666;2023-05-16T13:31:06;8.35;;;1.52;;
74894;SDS011;63447;49.446;8.666;2023-05-16T13:33:34;8.57;;;1.90;;
74894;SDS011;63447;49.446;8.666;2023-05-16T13:36:00;9.13;;;4.32;;
74894;SDS011;63447;49.446;8.666;2023-05-16T13:38:28;6.60;;;2.00;;
74894;SDS011;63447;49.446;8.666;2023-05-16T13:40:56;6.72;;;1.50;;
74894;SDS011;63447;49.446;8.666;2023-05-16T13:43:21;5.73;;;1.47;;
74894;SDS011;63447;49.446;8.666;2023-05-16T13:48:18;6.72;;;1.73;;
74894;SDS011;63447;49.446;8.666;2023-05-16T13:50:48;7.32;;;1.58;;
74894;SDS011;63447;49.446;8.666;2023-05-16T13:53:14;5.30;;;1.70;;
74894;SDS011;63447;49.446;8.666;2023-05-16T13:55:39;5.13;;;1.45;;
74894;SDS011;63447;49.446;8.666;2023-05-16T13:58:07;5.50;;;1.50;;
74894;SDS011;63447;49.446;8.666;2023-05-16T14:00:33;5.78;;;1.38;;
74894;SDS011;63447;49.446;8.666;2023-05-16T14:02:58;5.00;;;1.50;;
74894;SDS011;63447;49.446;8.666;2023-05-16T14:05:23;5.57;;;1.57;;
74894;SDS011;63447;49.446;8.666;2023-05-16T14:07:49;3.93;;;1.47;;
74894;SDS011;63447;49.446;8.666;2023-05-16T14:10:14;4.05;;;1.33;;
74894;SDS011;63447;49.446;8.666;2023-05-16T14:12:39;7.13;;;1.50;;
74894;SDS011;63447;49.446;8.666;2023-05-16T14:15:05;4.38;;;1.10;;
74894;SDS011;63447;49.446;8.666;2023-05-16T14:17:31;5.97;;;1.48;;
74894;SDS011;63447;49.446;8.666;2023-05-16T14:19:56;5.88;;;1.40;;
74894;SDS011;63447;49.446;8.666;2023-05-16T14:22:22;6.40;;;1.80;;
74894;SDS011;63447;49.446;8.666;2023-05-16T14:24:47;6.10;;;1.40;;
74894;SDS011;63447;49.446;8.666;2023-05-16T14:27:15;6.63;;;2.08;;
74894;SDS011;63447;49.446;8.666;2023-05-16T14:29:43;5.75;;;1.50;;
74894;SDS011;63447;49.446;8.666;2023-05-16T14:32:09;5.18;;;1.10;;
74894;SDS011;63447;49.446;8.666;2023-05-16T14:34:35;5.43;;;1.25;;
74894;SDS011;63447;49.446;8.666;2023-05-16T14:37:00;6.13;;;1.37;;
74894;SDS011;63447;49.446;8.666;2023-05-16T14:39:25;6.70;;;1.30;;
74894;SDS011;63447;49.446;8.666;2023-05-16T14:41:51;6.43;;;1.40;;
74894;SDS011;63447;49.446;8.666;2023-05-16T14:44:18;5.25;;;1.15;;
74894;SDS011;63447;49.446;8.666;2023-05-16T14:46:48;4.60;;;1.05;;
74894;SDS011;63447;49.446;8.666;2023-05-16T14:49:14;4.57;;;1.00;;
74894;SDS011;63447;49.446;8.666;2023-05-16T14:51:39;5.93;;;1.58;;
74894;SDS011;63447;49.446;8.666;2023-05-16T14:54:05;5.38;;;1.50;;
74894;SDS011;63447;49.446;8.666;2023-05-16T14:56:32;6.03;;;1.17;;
74894;SDS011;63447;49.446;8.666;2023-05-16T14:58:58;4.20;;;1.10;;
74894;SDS011;63447;49.446;8.666;2023-05-16T15:01:24;4.68;;;0.90;;
74894;SDS011;63447;49.446;8.666;2023-05-16T15:03:54;6.25;;;1.20;;
74894;SDS011;63447;49.446;8.666;2023-05-16T15:06:22;4.53;;;1.13;;
74894;SDS011;63447;49.446;8.666;2023-05-16T15:08:48;4.30;;;1.00;;
74894;SDS011;63447;49.446;8.666;2023-05-16T15:11:13;5.03;;;1.30;;
74894;SDS011;63447;49.446;8.666;2023-05-16T15:13:39;5.07;;;1.05;;
74894;SDS011;63447;49.446;8.666;2023-05-16T15:16:07;5.25;;;1.10;;
74894;SDS011;63447;49.446;8.666;2023-05-16T15:18:35;4.75;;;1.10;;
74894;SDS011;63447;49.446;8.666;2023-05-16T15:21:04;4.03;;;1.10;;
74894;SDS011;63447;49.446;8.666;2023-05-16T15:23:32;4.63;;;1.10;;
74894;SDS011;63447;49.446;8.666;2023-05-16T15:25:58;4.20;;;0.97;;
74894;SDS011;63447;49.446;8.666;2023-05-16T15:28:23;5.30;;;1.00;;
74894;SDS011;63447;49.446;8.666;2023-05-16T15:30:51;5.90;;;0.90;;